Wednesday, November 22, 2017, 4:12 AM EST
Back to Local

KACY, Atlantic City International

Location: Absecon, NJ, United States Lat: 39.467
Local Time: 4:12 AM EST ( 9:12 GMT) Lon: -74.583
Time Zone: US/Eastern Elev: 75 ft

Show me the last for .
Show Decoded

2017-11-22 03:54 METAR KACY 220854Z 21007KT 10SM -RA OVC070 14/13 A2994 RMK AO2 SLP139 P0015
                 60016 T01390128 58022 $ =
2017-11-22 03:05 METAR KACY 220805Z 23006G15KT 3SM +RA BR FEW008 BKN049 OVC075 15/14 A2998 RMK
                 AO2 P0005 T01500139 $ =
2017-11-22 02:54 METAR KACY 220754Z 26011KT 7SM RA FEW012 BKN055 OVC110 16/13 A2998 RMK AO2 RAB46
                 PRESRR SLP153 P0001 T01560133 $ =
2017-11-22 01:54 METAR KACY 220654Z 19009KT 10SM FEW085 OVC110 16/13 A2998 RMK AO2 SLP150
                 T01560133 $ =
2017-11-22 00:54 METAR KACY 220554Z 19009KT 10SM FEW060 BKN100 15/12 A3001 RMK AO2 SLP161
                 T01500117 10156 20133 58015 $ =
2017-11-21 23:54 METAR KACY 220454Z 20009G19KT 10SM BKN060 BKN070 OVC090 15/11 A3003 RMK AO2
                 SLP170 T01500111 401560022 $ =
2017-11-21 22:54 METAR KACY 220354Z 20011G22KT 10SM SCT060 OVC080 15/11 A3005 RMK AO2 SLP175
                 T01500106 $ =
2017-11-21 21:54 METAR KACY 220254Z 21011KT 10SM FEW065 15/10 A3005 RMK AO2 SLP176 T01500100
                 58009 $ =
2017-11-21 20:54 METAR KACY 220154Z 21012G20KT 10SM CLR 15/10 A3007 RMK AO2 SLP181 T01500100 $ =
2017-11-21 19:54 METAR KACY 220054Z 20008KT 10SM CLR 13/08 A3007 RMK AO2 SLP183 T01330078 $ =
2017-11-21 18:54 METAR KACY 212354Z 21012KT 10SM CLR 13/05 A3008 RMK AO2 SLP186 T01330050 10156
                 20122 53007 $ =
2017-11-21 17:54 METAR KACY 212254Z 20013KT 10SM CLR 13/07 A3007 RMK AO2 SLP183 T01280067 $ =
2017-11-21 16:54 METAR KACY 212154Z 20008G18KT 10SM CLR 12/06 A3006 RMK AO2 SLP180 T01220056 $ =
2017-11-21 15:54 METAR KACY 212054Z 19010G19KT 10SM CLR 13/04 A3006 RMK AO2 SLP179 T01330044
                 56017 $ =
2017-11-21 14:54 METAR KACY 211954Z 19012G19KT 10SM CLR 14/03 A3006 RMK AO2 SLP179 T01440033 $ =
2017-11-21 13:54 METAR KACY 211854Z 16007KT 10SM CLR 15/02 A3007 RMK AO2 PRESFR SLP180 T01500022
                 $ =
2017-11-21 12:54 METAR KACY 211754Z 22014G23KT 10SM CLR 14/00 A3011 RMK AO2 PK WND 23026/1658
                 SLP196 T01440000 10144 20056 58023 $ =
2017-11-21 11:54 METAR KACY 211654Z 22017G27KT 10SM CLR 13/00 A3014 RMK AO2 PK WND 23031/1629
                 SLP207 T01330000 $ =
2017-11-21 10:54 METAR KACY 211554Z 23014G25KT 10SM CLR 13/01 A3017 RMK AO2 SLP215 T01330011 $ =
2017-11-21 09:54 METAR KACY 211454Z 22015G22KT 10SM CLR 12/02 A3018 RMK AO2 SLP219 T01220022
                 51004 $ =
2017-11-21 08:54 METAR KACY 211354Z 20012G24KT 10SM CLR 10/03 A3018 RMK AO2 SLP220 T01000028 $ =
2017-11-21 07:54 METAR KACY 211254Z 21008KT 10SM CLR 08/02 A3018 RMK AO2 SLP222 T00780017 $ =
2017-11-21 06:54 METAR KACY 211154Z 20006KT 10SM CLR 06/01 A3017 RMK AO2 SLP216 T00560011 10067
                 20028 53001 $ =
2017-11-21 05:54 METAR KACY 211054Z 21008KT 10SM CLR 07/01 A3016 RMK AO2 SLP214 T00670011 $ =
2017-11-21 04:54 METAR KACY 210954Z 20006KT 10SM CLR 06/01 A3016 RMK AO2 SLP212 T00560011 $ =

Support USWX by starting your Amazon purchase here.